createdAt,value
2018-12-08T00:00:27.723Z,99714.30
2018-12-08T00:02:56.981Z,99726.67
2018-12-08T00:05:27.761Z,99722.42
2018-12-08T00:07:57.481Z,99725.67
2018-12-08T00:10:26.670Z,99727.36
2018-12-08T00:12:56.355Z,99728.16
2018-12-08T00:15:26.212Z,99722.44
2018-12-08T00:17:55.821Z,99720.48
2018-12-08T00:20:24.721Z,99726.37
2018-12-08T00:22:53.651Z,99727.70
2018-12-08T00:25:23.140Z,99727.30
2018-12-08T00:27:53.571Z,99730.02
2018-12-08T00:30:36.181Z,99727.42
2018-12-08T00:33:05.053Z,99731.09
2018-12-08T00:35:34.532Z,99745.89
2018-12-08T00:38:04.569Z,99748.38
2018-12-08T00:40:34.153Z,99748.77
2018-12-08T00:43:04.566Z,99747.21
2018-12-08T00:45:34.725Z,99757.25
2018-12-08T00:48:04.602Z,99757.08
2018-12-08T00:50:33.365Z,99755.16
2018-12-08T00:53:03.509Z,99756.33
2018-12-08T00:55:32.454Z,99773.59
2018-12-08T00:58:01.392Z,99777.33
2018-12-08T01:00:30.444Z,99773.34
2018-12-08T01:03:00.078Z,99788.02
2018-12-08T01:05:29.394Z,99783.18
2018-12-08T01:07:59.905Z,99783.64
2018-12-08T01:10:30.319Z,99788.92
2018-12-08T01:12:59.049Z,99796.05
2018-12-08T01:15:28.680Z,99792.21
2018-12-08T01:17:58.160Z,99800.12
2018-12-08T01:20:28.147Z,99805.22
2018-12-08T01:22:57.534Z,99802.77
2018-12-08T01:25:27.898Z,99807.69
2018-12-08T01:27:58.670Z,99809.92
2018-12-08T01:30:28.479Z,99813.65
2018-12-08T01:32:57.198Z,99814.14
2018-12-08T01:35:28.155Z,99822.53
2018-12-08T01:37:58.022Z,99819.45
2018-12-08T01:40:28.673Z,99826.25
2018-12-08T01:42:58.204Z,99830.41
2018-12-08T01:45:27.355Z,99826.91
2018-12-08T01:47:56.320Z,99825.50
2018-12-08T01:50:26.342Z,99833.70
2018-12-08T01:52:56.003Z,99829.91
2018-12-08T01:55:25.615Z,99838.30
2018-12-08T01:57:56.037Z,99832.09
2018-12-08T02:00:25.216Z,99829.54
2018-12-08T02:02:54.747Z,99830.97
2018-12-08T02:05:23.902Z,99830.60
2018-12-08T02:07:53.500Z,99825.73
2018-12-08T02:10:22.558Z,99837.42
2018-12-08T02:12:51.758Z,99835.06
2018-12-08T02:15:20.943Z,99828.67
2018-12-08T02:17:50.402Z,99826.50
2018-12-08T02:20:19.335Z,99834.37
2018-12-08T02:22:48.997Z,99831.15
2018-12-08T02:25:18.337Z,99822.72
2018-12-08T02:27:47.925Z,99826.73
2018-12-08T02:30:17.705Z,99825.03
2018-12-08T02:32:46.924Z,99816.23
2018-12-08T02:35:16.157Z,99826.37
2018-12-08T02:37:45.244Z,99824.97
2018-12-08T02:40:15.809Z,99827.62
2018-12-08T02:42:44.974Z,99817.22
2018-12-08T02:45:15.527Z,99822.23
2018-12-08T02:47:46.241Z,99820.23
2018-12-08T02:50:15.434Z,99818.16
2018-12-08T02:52:45.542Z,99823.84
2018-12-08T02:55:16.293Z,99826.10
2018-12-08T02:57:45.846Z,99834.94
2018-12-08T03:00:15.045Z,99831.91
2018-12-08T03:02:44.185Z,99830.20
2018-12-08T03:05:13.973Z,99832.66
2018-12-08T03:07:43.125Z,99834.17
2018-12-08T03:10:12.233Z,99822.61
2018-12-08T03:12:41.301Z,99833.14
2018-12-08T03:15:10.753Z,99822.71
2018-12-08T03:17:40.975Z,99824.39
2018-12-08T03:20:11.597Z,99832.06
2018-12-08T03:22:40.495Z,99833.55
2018-12-08T03:25:09.489Z,99827.58
2018-12-08T03:27:39.608Z,99829.03
2018-12-08T03:30:09.576Z,99827.11
2018-12-08T03:32:38.554Z,99824.92
2018-12-08T03:35:07.670Z,99827.03
2018-12-08T03:37:38.307Z,99834.05
2018-12-08T03:40:08.360Z,99832.14
2018-12-08T03:42:37.489Z,99835.95
2018-12-08T03:45:08.460Z,99826.56
2018-12-08T03:47:38.005Z,99822.80
2018-12-08T03:50:07.715Z,99824.80
2018-12-08T03:52:37.964Z,99814.64
2018-12-08T03:55:08.398Z,99816.73
2018-12-08T03:57:39.021Z,99812.97
2018-12-08T04:00:08.605Z,99809.77
2018-12-08T04:02:37.986Z,99805.20
2018-12-08T04:05:08.431Z,99809.64
2018-12-08T04:07:37.499Z,99816.87
2018-12-08T04:10:07.399Z,99814.78
2018-12-08T04:12:37.050Z,99808.70
2018-12-08T04:15:07.133Z,99804.05
2018-12-08T04:22:37.165Z,99786.34
2018-12-08T04:25:08.078Z,99784.27
2018-12-08T04:27:36.981Z,99772.42
2018-12-08T04:30:07.150Z,99781.97
2018-12-08T04:37:36.328Z,99790.59
2018-12-08T04:40:06.387Z,99779.23
2018-12-08T04:42:37.228Z,99775.70
2018-12-08T04:45:07.567Z,99774.81
2018-12-08T04:47:37.237Z,99766.72
2018-12-08T04:50:07.239Z,99766.64
2018-12-08T04:52:37.644Z,99762.23
2018-12-08T04:55:07.069Z,99765.72
2018-12-08T04:57:36.578Z,99770.30
2018-12-08T05:00:07.079Z,99777.52
2018-12-08T05:02:35.767Z,99757.63
2018-12-08T05:05:06.758Z,99760.96
2018-12-08T05:07:36.213Z,99747.59
2018-12-08T05:10:05.821Z,99751.08
2018-12-08T05:12:35.096Z,99746.16
2018-12-08T05:15:04.932Z,99735.63
2018-12-08T05:17:34.237Z,99735.16
2018-12-08T05:20:03.377Z,99736.96
2018-12-08T05:22:32.652Z,99736.49
2018-12-08T05:25:01.844Z,99728.11
2018-12-08T05:27:30.615Z,99729.44
2018-12-08T05:30:00.256Z,99717.89
2018-12-08T05:32:29.251Z,99736.06
2018-12-08T05:34:59.437Z,99730.08
2018-12-08T05:37:28.597Z,99726.42
2018-12-08T05:39:58.196Z,99712.58
2018-12-08T05:42:27.059Z,99718.50
2018-12-08T05:44:56.987Z,99712.09
2018-12-08T05:47:26.508Z,99714.42
2018-12-08T05:49:56.045Z,99712.98
2018-12-08T05:52:26.203Z,99699.36
2018-12-08T05:54:55.371Z,99701.23
2018-12-08T05:57:24.371Z,99704.56
2018-12-08T05:59:53.935Z,99703.34
2018-12-08T06:02:24.493Z,99695.53
2018-12-08T06:04:53.828Z,99686.49
2018-12-08T06:07:22.695Z,99694.95
2018-12-08T06:09:51.927Z,99682.86
2018-12-08T06:12:21.501Z,99690.42
2018-12-08T06:14:51.580Z,99683.67
2018-12-08T06:17:21.473Z,99666.90
2018-12-08T06:19:50.912Z,99692.67
2018-12-08T06:22:20.105Z,99689.54
2018-12-08T06:24:49.754Z,99679.18
2018-12-08T06:27:28.504Z,99676.27
2018-12-08T06:29:57.288Z,99673.91
2018-12-08T06:32:26.888Z,99683.22
2018-12-08T06:34:56.380Z,99679.52
2018-12-08T06:37:25.339Z,99699.65
2018-12-08T06:39:54.868Z,99690.76
2018-12-08T06:42:24.125Z,99685.03
2018-12-08T06:44:53.196Z,99683.59
2018-12-08T06:47:21.981Z,99680.32
2018-12-08T06:49:52.278Z,99679.44
2018-12-08T06:52:23.271Z,99679.69
2018-12-08T06:54:53.249Z,99671.56
2018-12-08T06:57:22.281Z,99676.30
2018-12-08T06:59:51.875Z,99666.66
2018-12-08T07:02:21.413Z,99673.30
2018-12-08T07:04:50.706Z,99663.67
2018-12-08T07:07:19.762Z,99661.06
2018-12-08T07:09:49.051Z,99660.73
2018-12-08T07:12:17.808Z,99651.99
2018-12-08T07:14:47.282Z,99650.78
2018-12-08T07:17:17.125Z,99655.39
2018-12-08T07:19:47.447Z,99654.54
2018-12-08T07:22:17.338Z,99641.02
2018-12-08T07:24:46.770Z,99646.05
2018-12-08T07:27:16.582Z,99640.80
2018-12-08T07:29:46.911Z,99647.27
2018-12-08T07:32:15.696Z,99639.19
2018-12-08T07:34:44.466Z,99644.14
2018-12-08T07:37:15.321Z,99649.40
2018-12-08T07:39:45.135Z,99641.79
2018-12-08T07:42:13.954Z,99636.23
2018-12-08T07:44:45.636Z,99639.86
2018-12-08T07:47:15.359Z,99640.79
2018-12-08T07:49:45.796Z,99636.70
2018-12-08T07:52:17.325Z,99633.11
2018-12-08T07:54:46.055Z,99630.92
2018-12-08T07:57:16.417Z,99627.83
2018-12-08T07:59:45.876Z,99625.63
2018-12-08T08:02:15.331Z,99620.95
2018-12-08T08:04:45.933Z,99618.30
2018-12-08T08:07:16.956Z,99612.62
2018-12-08T08:09:47.038Z,99607.09
2018-12-08T08:12:15.799Z,99620.55
2018-12-08T08:14:44.559Z,99617.23
2018-12-08T08:17:13.279Z,99615.14
2018-12-08T08:19:42.944Z,99614.26
2018-12-08T08:22:11.876Z,99603.59
2018-12-08T08:24:40.685Z,99594.19
2018-12-08T08:27:10.137Z,99599.22
2018-12-08T08:29:39.987Z,99594.57
2018-12-08T08:32:10.641Z,99593.24
2018-12-08T08:34:39.521Z,99580.73
2018-12-08T08:37:10.436Z,99582.50
2018-12-08T08:39:41.673Z,99577.50
2018-12-08T08:42:11.758Z,99579.52
2018-12-08T08:44:40.683Z,99575.86
2018-12-08T08:47:10.051Z,99564.86
2018-12-08T08:49:40.090Z,99576.22
2018-12-08T08:52:10.246Z,99572.48
2018-12-08T08:54:38.991Z,99563.97
2018-12-08T08:57:09.890Z,99563.50
2018-12-08T08:59:39.216Z,99567.02
2018-12-08T09:02:09.406Z,99553.34
2018-12-08T09:04:39.602Z,99550.69
2018-12-08T09:07:10.174Z,99553.22
2018-12-08T09:09:38.960Z,99556.23
2018-12-08T09:12:07.812Z,99550.09
2018-12-08T09:14:37.706Z,99538.17
2018-12-08T09:17:09.037Z,99542.39
2018-12-08T09:19:41.279Z,99536.05
2018-12-08T09:22:12.031Z,99534.31
2018-12-08T09:24:42.076Z,99536.61
2018-12-08T09:27:13.304Z,99536.46
2018-12-08T09:29:43.555Z,99537.37
2018-12-08T09:32:13.616Z,99542.13
2018-12-08T09:34:43.762Z,99529.88
2018-12-08T09:37:12.732Z,99535.05
2018-12-08T09:39:42.529Z,99529.41
2018-12-08T09:42:12.824Z,99525.83
2018-12-08T09:44:41.635Z,99531.36
2018-12-08T09:47:11.548Z,99524.64
2018-12-08T09:49:40.616Z,99516.12
2018-12-08T09:52:10.073Z,99517.75
2018-12-08T09:54:38.832Z,99501.21
2018-12-08T09:57:08.423Z,99510.72
2018-12-08T09:59:38.728Z,99508.41
2018-12-08T10:02:09.199Z,99501.06
2018-12-08T10:04:38.708Z,99514.77
2018-12-08T10:07:07.661Z,99502.25
2018-12-08T10:09:37.262Z,99497.48
2018-12-08T10:12:05.980Z,99488.96
2018-12-08T10:14:35.894Z,99487.31
2018-12-08T10:17:04.806Z,99479.05
2018-12-08T10:19:34.704Z,99482.34
2018-12-08T10:22:04.431Z,99472.44
2018-12-08T10:24:33.855Z,99477.89
2018-12-08T10:27:03.060Z,99460.77
2018-12-08T10:29:33.347Z,99472.37
2018-12-08T10:32:03.889Z,99466.41
2018-12-08T10:34:34.033Z,99467.71
2018-12-08T10:37:04.256Z,99461.58
2018-12-08T10:39:33.320Z,99458.34
2018-12-08T10:42:02.990Z,99452.84
2018-12-08T10:44:32.184Z,99445.77
2018-12-08T10:47:03.066Z,99432.89
2018-12-08T10:49:33.675Z,99437.95
2018-12-08T10:52:03.230Z,99425.93
2018-12-08T10:54:31.990Z,99426.06
2018-12-08T10:57:01.332Z,99427.38
2018-12-08T10:59:30.237Z,99419.91
2018-12-08T11:02:02.483Z,99420.17
2018-12-08T11:04:31.168Z,99425.14
2018-12-08T11:06:59.941Z,99418.49
2018-12-08T11:09:30.231Z,99424.00
2018-12-08T11:11:59.017Z,99418.30
2018-12-08T11:14:29.092Z,99419.49
2018-12-08T11:16:58.135Z,99434.39
2018-12-08T11:19:27.132Z,99406.87
2018-12-08T11:21:57.056Z,99411.00
2018-12-08T11:24:26.870Z,99411.72
2018-12-08T11:26:56.798Z,99410.70
2018-12-08T11:29:25.545Z,99411.70
2018-12-08T11:31:56.224Z,99404.50
2018-12-08T11:34:25.666Z,99403.16
2018-12-08T11:36:55.626Z,99403.84
2018-12-08T11:39:24.663Z,99397.82
2018-12-08T11:41:53.810Z,99401.50
2018-12-08T11:44:23.043Z,99397.20
2018-12-08T11:46:52.454Z,99398.86
2018-12-08T11:49:21.955Z,99389.91
2018-12-08T11:51:51.683Z,99383.60
2018-12-08T11:54:21.220Z,99391.94
2018-12-08T11:56:50.914Z,99392.05
2018-12-08T11:59:20.876Z,99386.23
2018-12-08T12:01:52.547Z,99383.34
2018-12-08T12:04:21.332Z,99390.06
2018-12-08T12:06:50.273Z,99384.03
2018-12-08T12:09:21.439Z,99381.99
2018-12-08T12:11:52.192Z,99379.72
2018-12-08T12:14:32.100Z,99386.73
2018-12-08T12:17:02.525Z,99369.11
2018-12-08T12:19:32.119Z,99368.85
2018-12-08T12:22:01.224Z,99365.64
2018-12-08T12:24:31.892Z,99362.39
2018-12-08T12:27:00.821Z,99361.89
2018-12-08T12:29:29.848Z,99353.81
2018-12-08T12:32:00.366Z,99351.48
2018-12-08T12:34:29.168Z,99344.23
2018-12-08T12:36:58.863Z,99350.55
2018-12-08T12:39:28.348Z,99346.20
2018-12-08T12:41:57.984Z,99347.44
2018-12-08T12:44:27.799Z,99330.87
2018-12-08T12:46:56.623Z,99338.64
2018-12-08T12:49:26.123Z,99333.45
2018-12-08T12:51:56.035Z,99325.47
2018-12-08T12:54:25.612Z,99331.27
2018-12-08T12:56:54.299Z,99328.00
2018-12-08T12:59:23.190Z,99318.09
2018-12-08T13:01:52.367Z,99322.81
2018-12-08T13:04:22.431Z,99327.75
2018-12-08T13:06:52.424Z,99328.00
2018-12-08T13:09:22.335Z,99328.23
2018-12-08T13:11:51.519Z,99334.53
2018-12-08T13:14:20.508Z,99328.73
2018-12-08T13:16:49.210Z,99331.52
2018-12-08T13:19:17.889Z,99330.41
2018-12-08T13:21:46.780Z,99336.20
2018-12-08T13:24:16.440Z,99342.50
2018-12-08T13:26:45.332Z,99327.14
2018-12-08T13:29:15.088Z,99328.95
2018-12-08T13:31:45.560Z,99334.27
2018-12-08T13:34:26.543Z,99334.02
2018-12-08T13:36:55.740Z,99336.94
2018-12-08T13:39:25.089Z,99330.63
2018-12-08T13:41:54.873Z,99338.86
2018-12-08T13:44:40.535Z,99343.48
2018-12-08T13:47:10.238Z,99339.45
2018-12-08T13:49:39.746Z,99327.36
2018-12-08T13:52:09.108Z,99331.25
2018-12-08T13:54:48.277Z,99329.80
2018-12-08T13:57:17.163Z,99333.17
2018-12-08T14:00:02.748Z,99324.85
2018-12-08T14:02:31.568Z,99321.44
2018-12-08T14:05:00.359Z,99323.26
2018-12-08T14:07:29.836Z,99325.69
2018-12-08T14:09:58.673Z,99323.26
2018-12-08T14:12:27.623Z,99320.47
2018-12-08T14:14:56.509Z,99315.87
2018-12-08T14:17:25.275Z,99323.86
2018-12-08T14:19:53.983Z,99314.55
2018-12-08T14:22:22.951Z,99316.36
2018-12-08T14:24:51.815Z,99319.26
2018-12-08T14:27:20.551Z,99310.33
2018-12-08T14:29:49.511Z,99310.70
2018-12-08T14:32:18.374Z,99323.16
2018-12-08T14:34:47.068Z,99317.34
2018-12-08T14:37:15.852Z,99315.28
2018-12-08T14:39:45.416Z,99310.44
2018-12-08T14:42:15.329Z,99312.88
2018-12-08T14:44:44.848Z,99318.90
2018-12-08T14:47:13.666Z,99302.23
2018-12-08T14:49:43.230Z,99321.80
2018-12-08T14:52:12.905Z,99320.59
2018-12-08T14:54:42.309Z,99305.69
2018-12-08T14:57:12.291Z,99323.98
2018-12-08T14:59:42.018Z,99315.04
2018-12-08T15:02:12.073Z,99310.67
2018-12-08T15:04:41.095Z,99314.30
2018-12-08T15:07:10.812Z,99304.23
2018-12-08T15:09:39.590Z,99307.03
2018-12-08T15:12:08.372Z,99305.86
2018-12-08T15:14:39.530Z,99306.33
2018-12-08T15:17:09.387Z,99301.24
2018-12-08T15:19:38.193Z,99298.70
2018-12-08T15:22:06.965Z,99305.58
2018-12-08T15:24:36.274Z,99306.21
2018-12-08T15:27:07.054Z,99304.24
2018-12-08T15:29:36.485Z,99302.84
2018-12-08T15:32:05.690Z,99305.83
2018-12-08T15:34:35.235Z,99296.17
2018-12-08T15:37:04.545Z,99308.48
2018-12-08T15:39:33.222Z,99301.09
2018-12-08T15:42:02.122Z,99305.56
2018-12-08T15:44:32.844Z,99307.41
2018-12-08T15:47:02.094Z,99309.07
2018-12-08T15:49:32.005Z,99316.59
2018-12-08T15:52:02.486Z,99317.19
2018-12-08T15:54:32.348Z,99313.20
2018-12-08T15:57:01.848Z,99321.34
2018-12-08T15:59:31.359Z,99324.59
2018-12-08T16:02:01.353Z,99322.39
2018-12-08T16:04:32.517Z,99316.94
2018-12-08T16:07:01.459Z,99321.20
2018-12-08T16:09:30.971Z,99320.84
2018-12-08T16:12:00.729Z,99318.25
2018-12-08T16:14:29.825Z,99311.11
2018-12-08T16:16:59.996Z,99299.54
2018-12-08T16:19:29.570Z,99312.22
2018-12-08T16:21:59.167Z,99324.72
2018-12-08T16:24:29.799Z,99314.91
2018-12-08T16:26:59.036Z,99322.89
2018-12-08T16:29:28.237Z,99314.44
2018-12-08T16:31:56.923Z,99310.81
2018-12-08T16:34:25.762Z,99317.67
2018-12-08T16:36:54.965Z,99321.67
2018-12-08T16:39:24.268Z,99320.95
2018-12-08T16:41:53.611Z,99309.95
2018-12-08T16:44:22.881Z,99316.63
2018-12-08T16:46:51.604Z,99325.95
2018-12-08T16:49:21.919Z,99311.56
2018-12-08T16:51:51.279Z,99310.31
2018-12-08T16:54:21.191Z,99311.30
2018-12-08T16:56:51.024Z,99311.16
2018-12-08T16:59:21.034Z,99317.34
2018-12-08T17:01:53.009Z,99306.59
2018-12-08T17:04:22.690Z,99308.65
2018-12-08T17:06:52.106Z,99315.04
2018-12-08T17:09:22.716Z,99315.28
2018-12-08T17:11:51.746Z,99312.38
2018-12-08T17:14:21.453Z,99310.92
2018-12-08T17:16:50.416Z,99317.69
2018-12-08T17:19:19.925Z,99313.21
2018-12-08T17:21:48.756Z,99307.06
2018-12-08T17:24:19.476Z,99316.25
2018-12-08T17:26:50.032Z,99313.59
2018-12-08T17:29:19.948Z,99323.75
2018-12-08T17:31:49.933Z,99319.16
2018-12-08T17:34:19.559Z,99302.00
2018-12-08T17:36:49.161Z,99310.24
2018-12-08T17:39:19.062Z,99302.01
2018-12-08T17:41:49.013Z,99298.63
2018-12-08T17:44:17.887Z,99290.98
2018-12-08T17:46:46.663Z,99305.27
2018-12-08T17:49:15.468Z,99306.13
2018-12-08T17:51:44.343Z,99299.23
2018-12-08T17:54:14.065Z,99308.41
2018-12-08T17:56:42.848Z,99301.54
2018-12-08T17:59:11.941Z,99292.31
2018-12-08T18:01:41.394Z,99289.56
2018-12-08T18:04:10.180Z,99282.66
2018-12-08T18:06:39.514Z,99279.16
2018-12-08T18:09:08.911Z,99277.48
2018-12-08T18:11:40.393Z,99268.91
2018-12-08T18:14:12.869Z,99278.22
2018-12-08T18:16:41.907Z,99272.05
2018-12-08T18:19:10.697Z,99272.52
2018-12-08T18:21:39.490Z,99279.16
2018-12-08T18:24:09.434Z,99272.05
2018-12-08T18:26:39.524Z,99265.39
2018-12-08T18:29:08.840Z,99271.05
2018-12-08T18:31:39.474Z,99277.09
2018-12-08T18:34:09.315Z,99249.31
2018-12-08T18:36:38.547Z,99253.56
2018-12-08T18:39:07.972Z,99254.03
2018-12-08T18:41:36.820Z,99249.09
2018-12-08T18:44:07.448Z,99248.84
2018-12-08T18:46:36.277Z,99235.67
2018-12-08T18:49:05.768Z,99242.08
2018-12-08T18:51:36.420Z,99234.70
2018-12-08T18:54:05.310Z,99223.95
2018-12-08T18:56:34.875Z,99232.91
2018-12-08T18:59:03.517Z,99232.05
2018-12-08T19:01:32.576Z,99233.16
2018-12-08T19:04:01.424Z,99228.44
2018-12-08T19:06:30.195Z,99225.99
2018-12-08T19:09:00.679Z,99229.64
2018-12-08T19:11:29.561Z,99224.92
2018-12-08T19:13:59.968Z,99231.45
2018-12-08T19:16:29.960Z,99219.12
2018-12-08T19:18:59.525Z,99222.61
2018-12-08T19:21:28.823Z,99217.30
2018-12-08T19:23:58.868Z,99213.57
2018-12-08T19:26:28.396Z,99215.97
2018-12-08T19:28:57.991Z,99217.30
2018-12-08T19:31:27.020Z,99204.88
2018-12-08T19:33:55.845Z,99213.92
2018-12-08T19:36:25.073Z,99210.18
2018-12-08T19:38:55.225Z,99209.23
2018-12-08T19:41:24.384Z,99199.55
2018-12-08T19:43:54.605Z,99203.66
2018-12-08T19:46:23.682Z,99198.61
2018-12-08T19:48:53.614Z,99192.17
2018-12-08T19:51:24.045Z,99184.46
2018-12-08T19:53:53.584Z,99177.33
2018-12-08T19:56:22.319Z,99181.41
2018-12-08T19:58:52.534Z,99172.24
2018-12-08T20:01:22.024Z,99177.81
2018-12-08T20:03:51.303Z,99167.41
2018-12-08T20:06:20.896Z,99162.09
2018-12-08T20:08:50.754Z,99157.41
2018-12-08T20:11:20.110Z,99148.92
2018-12-08T20:13:49.560Z,99153.28
2018-12-08T20:16:18.865Z,99145.44
2018-12-08T20:18:47.964Z,99138.41
2018-12-08T20:21:17.492Z,99126.69
2018-12-08T20:23:46.895Z,99126.45
2018-12-08T20:26:15.913Z,99117.77
2018-12-08T20:28:45.155Z,99101.72
2018-12-08T20:31:14.055Z,99104.27
2018-12-08T20:33:45.112Z,99094.86
2018-12-08T20:36:14.346Z,99095.19
2018-12-08T20:38:44.871Z,99086.45
2018-12-08T20:41:14.688Z,99079.67
2018-12-08T20:43:45.468Z,99075.06
2018-12-08T20:46:14.248Z,99069.25
2018-12-08T20:48:43.170Z,99068.28
2018-12-08T20:51:13.562Z,99066.95
2018-12-08T20:53:43.236Z,99050.59
2018-12-08T20:56:13.454Z,99049.05
2018-12-08T20:58:43.123Z,99044.47
2018-12-08T21:01:11.846Z,99051.98
2018-12-08T21:03:40.674Z,99039.82
2018-12-08T21:06:09.901Z,99036.45
2018-12-08T21:08:40.366Z,99030.75
2018-12-08T21:11:09.864Z,99025.27
2018-12-08T21:13:40.503Z,99019.31
2018-12-08T21:16:09.913Z,99006.77
2018-12-08T21:18:39.532Z,99012.52
2018-12-08T21:21:16.491Z,98990.02
2018-12-08T21:23:47.436Z,98980.33
2018-12-08T21:26:16.857Z,98973.23
2018-12-08T21:28:46.909Z,98966.72
2018-12-08T21:31:16.430Z,98968.48
2018-12-08T21:33:45.201Z,98950.23
2018-12-08T21:36:15.708Z,98951.70
2018-12-08T21:38:45.730Z,98936.20
2018-12-08T21:41:15.960Z,98942.61
2018-12-08T21:43:45.781Z,98928.80
2018-12-08T21:46:14.503Z,98920.52
2018-12-08T21:48:43.371Z,98923.90
2018-12-08T21:51:13.411Z,98926.59
2018-12-08T21:53:43.121Z,98912.72
2018-12-08T21:56:11.908Z,98909.72
2018-12-08T21:58:41.515Z,98901.30
2018-12-08T22:01:10.592Z,98891.59
2018-12-08T22:03:41.317Z,98866.59
2018-12-08T22:06:10.304Z,98874.62
2018-12-08T22:08:40.051Z,98856.96
2018-12-08T22:11:08.803Z,98856.16
2018-12-08T22:13:37.705Z,98845.38
2018-12-08T22:16:06.492Z,98838.35
2018-12-08T22:18:35.955Z,98826.91
2018-12-08T22:21:05.954Z,98814.45
2018-12-08T22:23:35.411Z,98810.64
2018-12-08T22:26:04.300Z,98807.41
2018-12-08T22:28:33.876Z,98795.36
2018-12-08T22:31:03.918Z,98787.46
2018-12-08T22:33:34.181Z,98769.80
2018-12-08T22:36:04.176Z,98758.54
2018-12-08T22:38:32.913Z,98746.84
2018-12-08T22:41:02.524Z,98725.86
2018-12-08T22:43:31.252Z,98727.98
2018-12-08T22:46:01.747Z,98716.80
2018-12-08T22:48:30.625Z,98707.23
2018-12-08T22:51:00.583Z,98705.81
2018-12-08T22:53:29.311Z,98695.80
2018-12-08T22:55:58.099Z,98684.45
2018-12-08T22:58:26.792Z,98676.22
2018-12-08T23:00:55.841Z,98666.13
2018-12-08T23:03:26.327Z,98660.03
2018-12-08T23:05:55.505Z,98660.89
2018-12-08T23:08:24.765Z,98653.80
2018-12-08T23:10:54.787Z,98641.55
2018-12-08T23:13:24.248Z,98624.19
2018-12-08T23:15:54.432Z,98620.61
2018-12-08T23:18:24.492Z,98612.09
2018-12-08T23:20:54.584Z,98596.55
2018-12-08T23:23:23.398Z,98587.03
2018-12-08T23:25:54.185Z,98572.06
2018-12-08T23:28:23.114Z,98561.14
2018-12-08T23:30:51.888Z,98561.29
2018-12-08T23:33:20.716Z,98548.69
2018-12-08T23:35:50.689Z,98534.02
2018-12-08T23:38:19.561Z,98530.61
2018-12-08T23:40:48.523Z,98530.41
2018-12-08T23:43:17.320Z,98518.77
2018-12-08T23:45:45.993Z,98518.06
2018-12-08T23:48:14.760Z,98510.94
2018-12-08T23:50:50.159Z,98482.77
2018-12-08T23:53:19.068Z,98485.23
2018-12-08T23:55:47.821Z,98490.41
2018-12-08T23:58:17.154Z,98497.42
